sensor_id;sensor_type;location;lat;lon;timestamp;P1;durP1;ratioP1;P2;durP2;ratioP2
16667;SDS011;8447;52.630;4.734;2023-05-01T00:00:29;4.20;;;1.73;;
16667;SDS011;8447;52.630;4.734;2023-05-01T00:02:55;3.20;;;1.90;;
16667;SDS011;8447;52.630;4.734;2023-05-01T00:05:22;2.93;;;1.60;;
16667;SDS011;8447;52.630;4.734;2023-05-01T00:07:48;7.10;;;1.90;;
16667;SDS011;8447;52.630;4.734;2023-05-01T00:10:15;1.97;;;1.70;;
16667;SDS011;8447;52.630;4.734;2023-05-01T00:12:42;4.63;;;1.77;;
16667;SDS011;8447;52.630;4.734;2023-05-01T00:15:09;3.00;;;2.03;;
16667;SDS011;8447;52.630;4.734;2023-05-01T00:17:37;3.80;;;2.20;;
16667;SDS011;8447;52.630;4.734;2023-05-01T00:20:03;4.20;;;1.97;;
16667;SDS011;8447;52.630;4.734;2023-05-01T00:22:30;3.20;;;1.73;;
16667;SDS011;8447;52.630;4.734;2023-05-01T00:24:56;3.17;;;1.93;;
16667;SDS011;8447;52.630;4.734;2023-05-01T00:27:23;3.07;;;1.60;;
16667;SDS011;8447;52.630;4.734;2023-05-01T00:29:49;3.20;;;1.60;;
16667;SDS011;8447;52.630;4.734;2023-05-01T00:32:16;2.07;;;1.80;;
16667;SDS011;8447;52.630;4.734;2023-05-01T00:34:43;4.07;;;1.53;;
16667;SDS011;8447;52.630;4.734;2023-05-01T00:37:12;6.20;;;1.70;;
16667;SDS011;8447;52.630;4.734;2023-05-01T00:39:38;2.73;;;1.40;;
16667;SDS011;8447;52.630;4.734;2023-05-01T00:42:05;3.77;;;1.67;;
16667;SDS011;8447;52.630;4.734;2023-05-01T00:44:31;3.77;;;1.93;;
16667;SDS011;8447;52.630;4.734;2023-05-01T00:46:58;2.73;;;1.73;;
16667;SDS011;8447;52.630;4.734;2023-05-01T00:49:26;2.27;;;1.57;;
16667;SDS011;8447;52.630;4.734;2023-05-01T00:51:54;2.63;;;1.67;;
16667;SDS011;8447;52.630;4.734;2023-05-01T00:54:20;2.40;;;1.60;;
16667;SDS011;8447;52.630;4.734;2023-05-01T00:56:47;2.53;;;1.87;;
16667;SDS011;8447;52.630;4.734;2023-05-01T00:59:14;3.13;;;1.50;;
16667;SDS011;8447;52.630;4.734;2023-05-01T01:01:41;1.93;;;1.70;;
16667;SDS011;8447;52.630;4.734;2023-05-01T01:04:07;2.43;;;1.67;;
16667;SDS011;8447;52.630;4.734;2023-05-01T01:06:39;3.03;;;1.63;;
16667;SDS011;8447;52.630;4.734;2023-05-01T01:09:12;2.27;;;1.40;;
16667;SDS011;8447;52.630;4.734;2023-05-01T01:11:42;4.43;;;1.80;;
16667;SDS011;8447;52.630;4.734;2023-05-01T01:14:11;3.73;;;1.83;;
16667;SDS011;8447;52.630;4.734;2023-05-01T01:16:43;1.50;;;1.40;;
16667;SDS011;8447;52.630;4.734;2023-05-01T01:19:16;1.57;;;1.43;;
16667;SDS011;8447;52.630;4.734;2023-05-01T01:21:48;3.67;;;1.87;;
16667;SDS011;8447;52.630;4.734;2023-05-01T01:24:29;2.07;;;1.73;;
16667;SDS011;8447;52.630;4.734;2023-05-01T01:27:04;1.87;;;1.63;;
16667;SDS011;8447;52.630;4.734;2023-05-01T01:29:42;4.10;;;2.00;;
16667;SDS011;8447;52.630;4.734;2023-05-01T01:32:19;4.03;;;1.80;;
16667;SDS011;8447;52.630;4.734;2023-05-01T01:34:54;2.80;;;2.07;;
16667;SDS011;8447;52.630;4.734;2023-05-01T01:37:21;2.63;;;1.70;;
16667;SDS011;8447;52.630;4.734;2023-05-01T01:39:51;2.20;;;1.47;;
16667;SDS011;8447;52.630;4.734;2023-05-01T01:42:21;5.50;;;2.00;;
16667;SDS011;8447;52.630;4.734;2023-05-01T01:44:49;3.47;;;2.00;;
16667;SDS011;8447;52.630;4.734;2023-05-01T01:47:16;2.30;;;1.50;;
16667;SDS011;8447;52.630;4.734;2023-05-01T01:49:45;2.37;;;1.97;;
16667;SDS011;8447;52.630;4.734;2023-05-01T01:52:15;1.97;;;1.70;;
16667;SDS011;8447;52.630;4.734;2023-05-01T01:54:43;5.13;;;1.67;;
16667;SDS011;8447;52.630;4.734;2023-05-01T01:57:10;4.50;;;2.10;;
16667;SDS011;8447;52.630;4.734;2023-05-01T01:59:38;2.40;;;1.83;;
16667;SDS011;8447;52.630;4.734;2023-05-01T02:02:05;3.37;;;2.27;;
16667;SDS011;8447;52.630;4.734;2023-05-01T02:04:32;2.30;;;1.83;;
16667;SDS011;8447;52.630;4.734;2023-05-01T02:06:59;3.43;;;1.90;;
16667;SDS011;8447;52.630;4.734;2023-05-01T02:09:28;4.60;;;2.30;;
16667;SDS011;8447;52.630;4.734;2023-05-01T02:11:55;2.30;;;1.90;;
16667;SDS011;8447;52.630;4.734;2023-05-01T02:14:22;2.67;;;1.80;;
16667;SDS011;8447;52.630;4.734;2023-05-01T02:16:50;2.80;;;1.80;;
16667;SDS011;8447;52.630;4.734;2023-05-01T02:19:17;3.70;;;2.13;;
16667;SDS011;8447;52.630;4.734;2023-05-01T02:21:45;5.73;;;1.93;;
16667;SDS011;8447;52.630;4.734;2023-05-01T02:24:12;6.40;;;2.40;;
16667;SDS011;8447;52.630;4.734;2023-05-01T02:26:42;8.00;;;2.40;;
16667;SDS011;8447;52.630;4.734;2023-05-01T02:29:09;3.70;;;1.90;;
16667;SDS011;8447;52.630;4.734;2023-05-01T02:31:36;3.90;;;2.23;;
16667;SDS011;8447;52.630;4.734;2023-05-01T02:34:02;5.80;;;1.80;;
16667;SDS011;8447;52.630;4.734;2023-05-01T02:36:28;5.07;;;1.90;;
16667;SDS011;8447;52.630;4.734;2023-05-01T02:38:57;3.63;;;1.87;;
16667;SDS011;8447;52.630;4.734;2023-05-01T02:41:24;5.50;;;2.03;;
16667;SDS011;8447;52.630;4.734;2023-05-01T02:43:53;3.67;;;2.20;;
16667;SDS011;8447;52.630;4.734;2023-05-01T02:46:21;3.30;;;2.23;;
16667;SDS011;8447;52.630;4.734;2023-05-01T02:48:49;3.40;;;2.27;;
16667;SDS011;8447;52.630;4.734;2023-05-01T02:51:16;3.30;;;2.00;;
16667;SDS011;8447;52.630;4.734;2023-05-01T02:53:43;4.00;;;2.30;;
16667;SDS011;8447;52.630;4.734;2023-05-01T02:56:10;4.27;;;2.40;;
16667;SDS011;8447;52.630;4.734;2023-05-01T02:58:38;2.87;;;2.13;;
16667;SDS011;8447;52.630;4.734;2023-05-01T03:01:06;4.77;;;2.17;;
16667;SDS011;8447;52.630;4.734;2023-05-01T03:03:32;5.67;;;1.90;;
16667;SDS011;8447;52.630;4.734;2023-05-01T03:05:59;4.73;;;2.30;;
16667;SDS011;8447;52.630;4.734;2023-05-01T03:08:27;3.60;;;2.13;;
16667;SDS011;8447;52.630;4.734;2023-05-01T03:10:53;7.17;;;2.23;;
16667;SDS011;8447;52.630;4.734;2023-05-01T03:13:19;2.80;;;2.23;;
16667;SDS011;8447;52.630;4.734;2023-05-01T03:15:47;2.13;;;1.63;;
16667;SDS011;8447;52.630;4.734;2023-05-01T03:18:14;3.93;;;1.93;;
16667;SDS011;8447;52.630;4.734;2023-05-01T03:20:49;4.40;;;2.10;;
16667;SDS011;8447;52.630;4.734;2023-05-01T03:23:16;5.00;;;2.10;;
16667;SDS011;8447;52.630;4.734;2023-05-01T03:25:42;2.00;;;1.90;;
16667;SDS011;8447;52.630;4.734;2023-05-01T03:28:09;4.07;;;2.00;;
16667;SDS011;8447;52.630;4.734;2023-05-01T03:30:35;3.47;;;2.17;;
16667;SDS011;8447;52.630;4.734;2023-05-01T03:33:01;4.63;;;1.97;;
16667;SDS011;8447;52.630;4.734;2023-05-01T03:35:29;5.20;;;1.90;;
16667;SDS011;8447;52.630;4.734;2023-05-01T03:37:55;4.07;;;1.97;;
16667;SDS011;8447;52.630;4.734;2023-05-01T03:40:22;3.70;;;2.30;;
16667;SDS011;8447;52.630;4.734;2023-05-01T03:42:48;2.87;;;2.33;;
16667;SDS011;8447;52.630;4.734;2023-05-01T03:45:15;5.20;;;2.10;;
16667;SDS011;8447;52.630;4.734;2023-05-01T03:47:41;2.93;;;2.17;;
16667;SDS011;8447;52.630;4.734;2023-05-01T03:50:07;6.00;;;2.00;;
16667;SDS011;8447;52.630;4.734;2023-05-01T03:52:36;2.13;;;1.70;;
16667;SDS011;8447;52.630;4.734;2023-05-01T03:55:02;3.70;;;1.97;;
16667;SDS011;8447;52.630;4.734;2023-05-01T03:57:29;2.80;;;2.00;;
16667;SDS011;8447;52.630;4.734;2023-05-01T03:59:55;5.13;;;1.87;;
16667;SDS011;8447;52.630;4.734;2023-05-01T04:02:21;5.13;;;2.00;;
16667;SDS011;8447;52.630;4.734;2023-05-01T04:04:48;5.50;;;1.93;;
16667;SDS011;8447;52.630;4.734;2023-05-01T04:07:14;3.10;;;1.90;;
16667;SDS011;8447;52.630;4.734;2023-05-01T04:09:42;3.00;;;1.83;;
16667;SDS011;8447;52.630;4.734;2023-05-01T04:12:08;4.50;;;1.83;;
16667;SDS011;8447;52.630;4.734;2023-05-01T04:14:35;4.00;;;1.90;;
16667;SDS011;8447;52.630;4.734;2023-05-01T04:17:01;3.30;;;1.83;;
16667;SDS011;8447;52.630;4.734;2023-05-01T04:19:28;3.67;;;1.87;;
16667;SDS011;8447;52.630;4.734;2023-05-01T04:21:54;3.80;;;1.83;;
16667;SDS011;8447;52.630;4.734;2023-05-01T04:24:21;3.43;;;1.83;;
16667;SDS011;8447;52.630;4.734;2023-05-01T04:26:51;2.53;;;1.93;;
16667;SDS011;8447;52.630;4.734;2023-05-01T04:29:17;1.73;;;1.63;;
16667;SDS011;8447;52.630;4.734;2023-05-01T04:31:43;3.23;;;1.97;;
16667;SDS011;8447;52.630;4.734;2023-05-01T04:34:10;1.90;;;1.60;;
16667;SDS011;8447;52.630;4.734;2023-05-01T04:36:36;2.63;;;2.07;;
16667;SDS011;8447;52.630;4.734;2023-05-01T04:39:03;3.80;;;2.10;;
16667;SDS011;8447;52.630;4.734;2023-05-01T04:41:29;2.53;;;1.63;;
16667;SDS011;8447;52.630;4.734;2023-05-01T04:43:57;2.87;;;2.00;;
16667;SDS011;8447;52.630;4.734;2023-05-01T04:46:23;2.77;;;1.93;;
16667;SDS011;8447;52.630;4.734;2023-05-01T04:48:50;3.97;;;1.83;;
16667;SDS011;8447;52.630;4.734;2023-05-01T04:51:16;3.50;;;1.73;;
16667;SDS011;8447;52.630;4.734;2023-05-01T04:53:43;3.00;;;2.20;;
16667;SDS011;8447;52.630;4.734;2023-05-01T04:56:10;4.47;;;2.10;;
16667;SDS011;8447;52.630;4.734;2023-05-01T04:58:36;2.70;;;2.27;;
16667;SDS011;8447;52.630;4.734;2023-05-01T05:01:04;4.60;;;2.60;;
16667;SDS011;8447;52.630;4.734;2023-05-01T05:03:31;4.70;;;2.20;;
16667;SDS011;8447;52.630;4.734;2023-05-01T05:05:57;6.27;;;2.87;;
16667;SDS011;8447;52.630;4.734;2023-05-01T05:08:25;3.53;;;2.23;;
16667;SDS011;8447;52.630;4.734;2023-05-01T05:10:55;7.40;;;3.20;;
16667;SDS011;8447;52.630;4.734;2023-05-01T05:13:21;4.50;;;2.53;;
16667;SDS011;8447;52.630;4.734;2023-05-01T05:15:47;6.63;;;2.67;;
16667;SDS011;8447;52.630;4.734;2023-05-01T05:18:15;3.10;;;2.40;;
16667;SDS011;8447;52.630;4.734;2023-05-01T05:20:42;4.10;;;2.47;;
16667;SDS011;8447;52.630;4.734;2023-05-01T05:23:08;4.37;;;1.97;;
16667;SDS011;8447;52.630;4.734;2023-05-01T05:25:35;3.57;;;2.67;;
16667;SDS011;8447;52.630;4.734;2023-05-01T05:28:02;8.80;;;2.43;;
16667;SDS011;8447;52.630;4.734;2023-05-01T05:30:28;7.40;;;2.70;;
16667;SDS011;8447;52.630;4.734;2023-05-01T05:32:54;4.53;;;2.40;;
16667;SDS011;8447;52.630;4.734;2023-05-01T05:35:23;3.30;;;2.30;;
16667;SDS011;8447;52.630;4.734;2023-05-01T05:37:49;4.40;;;2.80;;
16667;SDS011;8447;52.630;4.734;2023-05-01T05:40:16;4.13;;;2.63;;
16667;SDS011;8447;52.630;4.734;2023-05-01T05:42:43;2.70;;;2.13;;
16667;SDS011;8447;52.630;4.734;2023-05-01T05:45:09;5.10;;;2.77;;
16667;SDS011;8447;52.630;4.734;2023-05-01T05:47:36;5.07;;;2.73;;
16667;SDS011;8447;52.630;4.734;2023-05-01T05:50:03;7.37;;;2.80;;
16667;SDS011;8447;52.630;4.734;2023-05-01T05:52:31;7.73;;;3.23;;
16667;SDS011;8447;52.630;4.734;2023-05-01T05:54:58;3.73;;;2.53;;
16667;SDS011;8447;52.630;4.734;2023-05-01T05:57:26;4.60;;;2.30;;
16667;SDS011;8447;52.630;4.734;2023-05-01T05:59:52;5.53;;;2.20;;
16667;SDS011;8447;52.630;4.734;2023-05-01T06:02:19;5.23;;;2.30;;
16667;SDS011;8447;52.630;4.734;2023-05-01T06:04:46;5.67;;;2.47;;
16667;SDS011;8447;52.630;4.734;2023-05-01T06:07:12;5.90;;;2.70;;
16667;SDS011;8447;52.630;4.734;2023-05-01T06:09:40;5.37;;;2.40;;
16667;SDS011;8447;52.630;4.734;2023-05-01T06:12:07;4.93;;;2.83;;
16667;SDS011;8447;52.630;4.734;2023-05-01T06:14:34;5.00;;;2.13;;
16667;SDS011;8447;52.630;4.734;2023-05-01T06:17:00;4.23;;;2.30;;
16667;SDS011;8447;52.630;4.734;2023-05-01T06:19:27;8.53;;;2.30;;
16667;SDS011;8447;52.630;4.734;2023-05-01T06:21:53;4.70;;;2.43;;
16667;SDS011;8447;52.630;4.734;2023-05-01T06:24:22;5.40;;;2.60;;
16667;SDS011;8447;52.630;4.734;2023-05-01T06:26:50;6.53;;;2.60;;
16667;SDS011;8447;52.630;4.734;2023-05-01T06:29:16;7.37;;;2.60;;
16667;SDS011;8447;52.630;4.734;2023-05-01T06:31:42;4.67;;;2.40;;
16667;SDS011;8447;52.630;4.734;2023-05-01T06:34:09;6.23;;;2.40;;
16667;SDS011;8447;52.630;4.734;2023-05-01T06:36:37;8.73;;;2.83;;
16667;SDS011;8447;52.630;4.734;2023-05-01T06:39:03;4.60;;;2.40;;
16667;SDS011;8447;52.630;4.734;2023-05-01T06:41:29;6.37;;;2.23;;
16667;SDS011;8447;52.630;4.734;2023-05-01T06:43:58;7.33;;;2.73;;
16667;SDS011;8447;52.630;4.734;2023-05-01T06:46:24;5.27;;;2.43;;
16667;SDS011;8447;52.630;4.734;2023-05-01T06:48:51;6.90;;;2.47;;
16667;SDS011;8447;52.630;4.734;2023-05-01T06:51:17;8.40;;;2.93;;
16667;SDS011;8447;52.630;4.734;2023-05-01T06:53:43;5.50;;;3.03;;
16667;SDS011;8447;52.630;4.734;2023-05-01T06:56:10;4.90;;;2.20;;
16667;SDS011;8447;52.630;4.734;2023-05-01T06:58:36;7.53;;;3.10;;
16667;SDS011;8447;52.630;4.734;2023-05-01T07:01:04;4.53;;;2.80;;
16667;SDS011;8447;52.630;4.734;2023-05-01T07:03:31;3.83;;;2.80;;
16667;SDS011;8447;52.630;4.734;2023-05-01T07:05:57;5.13;;;2.70;;
16667;SDS011;8447;52.630;4.734;2023-05-01T07:08:23;5.23;;;2.53;;
16667;SDS011;8447;52.630;4.734;2023-05-01T07:10:52;4.73;;;2.43;;
16667;SDS011;8447;52.630;4.734;2023-05-01T07:13:18;3.60;;;2.50;;
16667;SDS011;8447;52.630;4.734;2023-05-01T07:15:44;7.30;;;2.87;;
16667;SDS011;8447;52.630;4.734;2023-05-01T07:18:12;5.97;;;2.77;;
16667;SDS011;8447;52.630;4.734;2023-05-01T07:20:39;3.00;;;2.70;;
16667;SDS011;8447;52.630;4.734;2023-05-01T07:23:05;7.93;;;2.87;;
16667;SDS011;8447;52.630;4.734;2023-05-01T07:25:33;5.10;;;2.70;;
16667;SDS011;8447;52.630;4.734;2023-05-01T07:28:01;6.40;;;2.90;;
16667;SDS011;8447;52.630;4.734;2023-05-01T07:30:29;5.20;;;3.10;;
16667;SDS011;8447;52.630;4.734;2023-05-01T07:32:57;6.47;;;2.80;;
16667;SDS011;8447;52.630;4.734;2023-05-01T07:35:24;4.20;;;3.20;;
16667;SDS011;8447;52.630;4.734;2023-05-01T07:37:51;6.43;;;2.93;;
16667;SDS011;8447;52.630;4.734;2023-05-01T07:40:19;7.17;;;3.20;;
16667;SDS011;8447;52.630;4.734;2023-05-01T07:42:45;5.03;;;3.03;;
16667;SDS011;8447;52.630;4.734;2023-05-01T07:45:11;5.43;;;3.10;;
16667;SDS011;8447;52.630;4.734;2023-05-01T07:47:38;4.70;;;2.77;;
16667;SDS011;8447;52.630;4.734;2023-05-01T07:50:08;5.47;;;3.50;;
16667;SDS011;8447;52.630;4.734;2023-05-01T07:52:35;8.80;;;3.27;;
16667;SDS011;8447;52.630;4.734;2023-05-01T07:55:02;9.70;;;3.30;;
16667;SDS011;8447;52.630;4.734;2023-05-01T07:57:29;5.10;;;3.20;;
16667;SDS011;8447;52.630;4.734;2023-05-01T07:59:57;5.77;;;2.87;;
16667;SDS011;8447;52.630;4.734;2023-05-01T08:02:23;7.07;;;3.13;;
16667;SDS011;8447;52.630;4.734;2023-05-01T08:04:50;3.43;;;2.60;;
16667;SDS011;8447;52.630;4.734;2023-05-01T08:07:16;5.27;;;2.67;;
16667;SDS011;8447;52.630;4.734;2023-05-01T08:09:44;3.13;;;2.83;;
16667;SDS011;8447;52.630;4.734;2023-05-01T08:12:10;7.87;;;2.67;;
16667;SDS011;8447;52.630;4.734;2023-05-01T08:14:37;4.80;;;2.70;;
16667;SDS011;8447;52.630;4.734;2023-05-01T08:17:03;8.87;;;2.80;;
16667;SDS011;8447;52.630;4.734;2023-05-01T08:19:30;7.33;;;3.23;;
16667;SDS011;8447;52.630;4.734;2023-05-01T08:21:56;6.00;;;2.20;;
16667;SDS011;8447;52.630;4.734;2023-05-01T08:24:22;4.40;;;2.13;;
16667;SDS011;8447;52.630;4.734;2023-05-01T08:26:51;7.37;;;2.90;;
16667;SDS011;8447;52.630;4.734;2023-05-01T08:29:17;3.17;;;2.60;;
16667;SDS011;8447;52.630;4.734;2023-05-01T08:31:44;7.43;;;2.93;;
16667;SDS011;8447;52.630;4.734;2023-05-01T08:34:10;5.97;;;3.10;;
16667;SDS011;8447;52.630;4.734;2023-05-01T08:36:36;6.30;;;3.00;;
16667;SDS011;8447;52.630;4.734;2023-05-01T08:39:03;7.80;;;2.73;;
16667;SDS011;8447;52.630;4.734;2023-05-01T08:41:29;4.57;;;2.37;;
16667;SDS011;8447;52.630;4.734;2023-05-01T08:43:59;7.50;;;2.63;;
16667;SDS011;8447;52.630;4.734;2023-05-01T08:46:28;4.90;;;3.07;;
16667;SDS011;8447;52.630;4.734;2023-05-01T08:48:59;6.33;;;3.00;;
16667;SDS011;8447;52.630;4.734;2023-05-01T08:51:26;3.03;;;2.20;;
16667;SDS011;8447;52.630;4.734;2023-05-01T08:53:52;5.17;;;2.23;;
16667;SDS011;8447;52.630;4.734;2023-05-01T08:56:20;5.53;;;2.63;;
16667;SDS011;8447;52.630;4.734;2023-05-01T08:58:47;3.97;;;2.57;;
16667;SDS011;8447;52.630;4.734;2023-05-01T09:01:15;4.27;;;2.27;;
16667;SDS011;8447;52.630;4.734;2023-05-01T09:03:43;4.73;;;2.60;;
16667;SDS011;8447;52.630;4.734;2023-05-01T09:06:10;3.70;;;2.37;;
16667;SDS011;8447;52.630;4.734;2023-05-01T09:08:37;6.23;;;2.73;;
16667;SDS011;8447;52.630;4.734;2023-05-01T09:11:03;4.63;;;2.70;;
16667;SDS011;8447;52.630;4.734;2023-05-01T09:13:30;5.37;;;2.83;;
16667;SDS011;8447;52.630;4.734;2023-05-01T09:15:57;5.30;;;2.60;;
16667;SDS011;8447;52.630;4.734;2023-05-01T09:18:25;6.23;;;2.40;;
16667;SDS011;8447;52.630;4.734;2023-05-01T09:20:52;5.07;;;2.73;;
16667;SDS011;8447;52.630;4.734;2023-05-01T09:23:19;5.70;;;2.37;;
16667;SDS011;8447;52.630;4.734;2023-05-01T09:25:45;4.63;;;2.13;;
16667;SDS011;8447;52.630;4.734;2023-05-01T09:28:12;3.37;;;2.20;;
16667;SDS011;8447;52.630;4.734;2023-05-01T09:30:38;6.57;;;2.33;;
16667;SDS011;8447;52.630;4.734;2023-05-01T09:33:05;6.67;;;2.53;;
16667;SDS011;8447;52.630;4.734;2023-05-01T09:35:34;6.00;;;2.50;;
16667;SDS011;8447;52.630;4.734;2023-05-01T09:38:15;4.23;;;2.50;;
16667;SDS011;8447;52.630;4.734;2023-05-01T09:40:42;5.53;;;2.50;;
16667;SDS011;8447;52.630;4.734;2023-05-01T09:43:08;6.07;;;2.30;;
16667;SDS011;8447;52.630;4.734;2023-05-01T09:45:35;9.47;;;2.00;;
16667;SDS011;8447;52.630;4.734;2023-05-01T09:48:09;7.60;;;2.50;;
16667;SDS011;8447;52.630;4.734;2023-05-01T09:50:37;2.53;;;1.60;;
16667;SDS011;8447;52.630;4.734;2023-05-01T09:53:06;4.33;;;1.70;;
16667;SDS011;8447;52.630;4.734;2023-05-01T09:55:33;5.83;;;1.90;;
16667;SDS011;8447;52.630;4.734;2023-05-01T09:57:59;5.73;;;1.93;;
16667;SDS011;8447;52.630;4.734;2023-05-01T10:00:25;5.00;;;1.70;;
16667;SDS011;8447;52.630;4.734;2023-05-01T10:02:52;3.00;;;2.20;;
16667;SDS011;8447;52.630;4.734;2023-05-01T10:05:18;7.90;;;2.00;;
16667;SDS011;8447;52.630;4.734;2023-05-01T10:07:56;4.57;;;2.37;;
16667;SDS011;8447;52.630;4.734;2023-05-01T10:10:23;3.63;;;2.00;;
16667;SDS011;8447;52.630;4.734;2023-05-01T10:12:49;4.97;;;2.60;;
16667;SDS011;8447;52.630;4.734;2023-05-01T10:15:16;3.80;;;2.50;;
16667;SDS011;8447;52.630;4.734;2023-05-01T10:17:43;3.43;;;1.70;;
16667;SDS011;8447;52.630;4.734;2023-05-01T10:20:10;4.90;;;2.60;;
16667;SDS011;8447;52.630;4.734;2023-05-01T10:22:36;3.33;;;2.23;;
16667;SDS011;8447;52.630;4.734;2023-05-01T10:25:05;4.57;;;2.73;;
16667;SDS011;8447;52.630;4.734;2023-05-01T10:27:32;4.30;;;2.87;;
16667;SDS011;8447;52.630;4.734;2023-05-01T10:29:59;5.07;;;2.57;;
16667;SDS011;8447;52.630;4.734;2023-05-01T10:32:28;3.83;;;2.90;;
16667;SDS011;8447;52.630;4.734;2023-05-01T10:34:56;3.77;;;2.13;;
16667;SDS011;8447;52.630;4.734;2023-05-01T10:37:25;4.17;;;2.83;;
16667;SDS011;8447;52.630;4.734;2023-05-01T10:39:52;5.37;;;3.00;;
16667;SDS011;8447;52.630;4.734;2023-05-01T10:42:20;5.53;;;3.03;;
16667;SDS011;8447;52.630;4.734;2023-05-01T10:44:46;5.17;;;2.70;;
16667;SDS011;8447;52.630;4.734;2023-05-01T10:50:02;4.00;;;3.03;;
16667;SDS011;8447;52.630;4.734;2023-05-01T10:52:30;4.10;;;3.40;;
16667;SDS011;8447;52.630;4.734;2023-05-01T10:57:42;3.70;;;3.03;;
16667;SDS011;8447;52.630;4.734;2023-05-01T11:00:09;4.83;;;2.63;;
16667;SDS011;8447;52.630;4.734;2023-05-01T11:02:35;4.43;;;2.80;;
16667;SDS011;8447;52.630;4.734;2023-05-01T11:05:02;3.60;;;2.70;;
16667;SDS011;8447;52.630;4.734;2023-05-01T11:07:28;5.03;;;2.67;;
16667;SDS011;8447;52.630;4.734;2023-05-01T11:09:55;3.73;;;2.87;;
16667;SDS011;8447;52.630;4.734;2023-05-01T11:15:05;6.07;;;3.40;;
16667;SDS011;8447;52.630;4.734;2023-05-01T11:17:45;3.60;;;3.00;;
16667;SDS011;8447;52.630;4.734;2023-05-01T11:20:12;5.33;;;3.20;;
16667;SDS011;8447;52.630;4.734;2023-05-01T11:22:39;5.70;;;3.47;;
16667;SDS011;8447;52.630;4.734;2023-05-01T11:25:16;3.97;;;3.17;;
16667;SDS011;8447;52.630;4.734;2023-05-01T11:27:45;5.37;;;3.40;;
16667;SDS011;8447;52.630;4.734;2023-05-01T11:30:14;6.97;;;3.73;;
16667;SDS011;8447;52.630;4.734;2023-05-01T11:32:42;7.07;;;3.70;;
16667;SDS011;8447;52.630;4.734;2023-05-01T11:35:13;4.57;;;3.10;;
16667;SDS011;8447;52.630;4.734;2023-05-01T11:37:41;6.00;;;3.30;;
16667;SDS011;8447;52.630;4.734;2023-05-01T11:40:17;6.27;;;3.60;;
16667;SDS011;8447;52.630;4.734;2023-05-01T11:42:44;4.40;;;3.20;;
16667;SDS011;8447;52.630;4.734;2023-05-01T11:45:10;4.23;;;3.57;;
16667;SDS011;8447;52.630;4.734;2023-05-01T11:47:38;5.20;;;3.60;;
16667;SDS011;8447;52.630;4.734;2023-05-01T11:50:05;5.50;;;3.80;;
16667;SDS011;8447;52.630;4.734;2023-05-01T11:52:40;5.87;;;3.97;;
16667;SDS011;8447;52.630;4.734;2023-05-01T11:55:06;3.70;;;3.10;;
16667;SDS011;8447;52.630;4.734;2023-05-01T11:57:43;5.93;;;3.80;;
16667;SDS011;8447;52.630;4.734;2023-05-01T12:00:10;7.23;;;4.07;;
16667;SDS011;8447;52.630;4.734;2023-05-01T12:02:36;4.83;;;3.20;;
16667;SDS011;8447;52.630;4.734;2023-05-01T12:05:14;4.60;;;4.07;;
16667;SDS011;8447;52.630;4.734;2023-05-01T12:07:41;5.87;;;4.40;;
16667;SDS011;8447;52.630;4.734;2023-05-01T12:10:07;4.07;;;3.50;;
16667;SDS011;8447;52.630;4.734;2023-05-01T12:12:34;3.57;;;3.03;;
16667;SDS011;8447;52.630;4.734;2023-05-01T12:15:01;6.67;;;3.23;;
16667;SDS011;8447;52.630;4.734;2023-05-01T12:17:27;6.53;;;3.00;;
16667;SDS011;8447;52.630;4.734;2023-05-01T12:19:54;4.57;;;3.50;;
16667;SDS011;8447;52.630;4.734;2023-05-01T12:22:23;4.30;;;3.43;;
16667;SDS011;8447;52.630;4.734;2023-05-01T12:24:50;6.20;;;3.70;;
16667;SDS011;8447;52.630;4.734;2023-05-01T12:27:18;4.30;;;2.93;;
16667;SDS011;8447;52.630;4.734;2023-05-01T12:29:44;4.90;;;3.60;;
16667;SDS011;8447;52.630;4.734;2023-05-01T12:32:12;4.90;;;3.80;;
16667;SDS011;8447;52.630;4.734;2023-05-01T12:34:38;4.63;;;3.40;;
16667;SDS011;8447;52.630;4.734;2023-05-01T12:37:05;4.10;;;3.57;;
16667;SDS011;8447;52.630;4.734;2023-05-01T12:39:36;5.60;;;3.90;;
16667;SDS011;8447;52.630;4.734;2023-05-01T12:42:03;4.67;;;3.00;;
16667;SDS011;8447;52.630;4.734;2023-05-01T12:44:36;3.50;;;3.00;;
16667;SDS011;8447;52.630;4.734;2023-05-01T12:47:03;4.50;;;3.53;;
16667;SDS011;8447;52.630;4.734;2023-05-01T12:49:30;3.90;;;3.23;;
16667;SDS011;8447;52.630;4.734;2023-05-01T12:51:58;6.20;;;4.07;;
16667;SDS011;8447;52.630;4.734;2023-05-01T12:54:26;3.70;;;3.20;;
16667;SDS011;8447;52.630;4.734;2023-05-01T12:57:03;4.20;;;3.43;;
16667;SDS011;8447;52.630;4.734;2023-05-01T12:59:30;6.13;;;3.43;;
16667;SDS011;8447;52.630;4.734;2023-05-01T13:01:56;3.27;;;2.77;;
16667;SDS011;8447;52.630;4.734;2023-05-01T13:04:24;3.90;;;3.43;;
16667;SDS011;8447;52.630;4.734;2023-05-01T13:06:51;3.47;;;3.07;;
16667;SDS011;8447;52.630;4.734;2023-05-01T13:09:17;3.13;;;2.83;;
16667;SDS011;8447;52.630;4.734;2023-05-01T13:11:56;4.30;;;2.70;;
16667;SDS011;8447;52.630;4.734;2023-05-01T13:14:22;4.47;;;3.43;;
16667;SDS011;8447;52.630;4.734;2023-05-01T13:16:49;5.37;;;3.60;;
16667;SDS011;8447;52.630;4.734;2023-05-01T13:19:23;5.00;;;3.80;;
16667;SDS011;8447;52.630;4.734;2023-05-01T13:21:50;4.53;;;3.97;;
16667;SDS011;8447;52.630;4.734;2023-05-01T13:24:17;7.57;;;3.80;;
16667;SDS011;8447;52.630;4.734;2023-05-01T13:26:44;5.53;;;4.10;;
16667;SDS011;8447;52.630;4.734;2023-05-01T13:29:13;5.20;;;4.30;;
16667;SDS011;8447;52.630;4.734;2023-05-01T13:31:41;7.50;;;4.57;;
16667;SDS011;8447;52.630;4.734;2023-05-01T13:34:07;5.60;;;4.43;;
16667;SDS011;8447;52.630;4.734;2023-05-01T13:36:34;6.20;;;4.40;;
16667;SDS011;8447;52.630;4.734;2023-05-01T13:39:01;6.93;;;5.33;;
16667;SDS011;8447;52.630;4.734;2023-05-01T13:41:28;9.07;;;5.10;;
16667;SDS011;8447;52.630;4.734;2023-05-01T13:43:55;6.13;;;4.37;;
16667;SDS011;8447;52.630;4.734;2023-05-01T13:46:24;7.13;;;5.97;;
16667;SDS011;8447;52.630;4.734;2023-05-01T13:48:50;8.77;;;5.70;;
16667;SDS011;8447;52.630;4.734;2023-05-01T13:51:19;7.10;;;5.43;;
16667;SDS011;8447;52.630;4.734;2023-05-01T13:53:45;9.47;;;5.80;;
16667;SDS011;8447;52.630;4.734;2023-05-01T13:56:12;8.17;;;6.63;;
16667;SDS011;8447;52.630;4.734;2023-05-01T13:58:39;8.40;;;5.77;;
16667;SDS011;8447;52.630;4.734;2023-05-01T14:01:05;7.97;;;5.60;;
16667;SDS011;8447;52.630;4.734;2023-05-01T14:03:40;9.07;;;6.27;;
16667;SDS011;8447;52.630;4.734;2023-05-01T14:06:07;7.57;;;6.10;;
16667;SDS011;8447;52.630;4.734;2023-05-01T14:08:34;6.70;;;5.93;;
16667;SDS011;8447;52.630;4.734;2023-05-01T14:11:02;7.80;;;6.43;;
16667;SDS011;8447;52.630;4.734;2023-05-01T14:13:29;8.93;;;6.00;;
16667;SDS011;8447;52.630;4.734;2023-05-01T14:15:55;8.00;;;5.63;;
16667;SDS011;8447;52.630;4.734;2023-05-01T14:18:22;6.93;;;6.23;;
16667;SDS011;8447;52.630;4.734;2023-05-01T14:20:50;6.83;;;5.47;;
16667;SDS011;8447;52.630;4.734;2023-05-01T14:23:16;7.57;;;5.87;;
16667;SDS011;8447;52.630;4.734;2023-05-01T14:25:44;10.63;;;6.27;;
16667;SDS011;8447;52.630;4.734;2023-05-01T14:28:13;7.17;;;6.17;;
16667;SDS011;8447;52.630;4.734;2023-05-01T14:30:40;9.97;;;6.03;;
16667;SDS011;8447;52.630;4.734;2023-05-01T14:33:07;7.67;;;5.90;;
16667;SDS011;8447;52.630;4.734;2023-05-01T14:35:34;7.70;;;4.83;;
16667;SDS011;8447;52.630;4.734;2023-05-01T14:38:06;10.80;;;6.33;;
16667;SDS011;8447;52.630;4.734;2023-05-01T14:40:33;8.77;;;6.87;;
16667;SDS011;8447;52.630;4.734;2023-05-01T14:42:59;7.17;;;5.33;;
16667;SDS011;8447;52.630;4.734;2023-05-01T14:45:26;9.83;;;6.60;;
16667;SDS011;8447;52.630;4.734;2023-05-01T14:47:53;9.37;;;7.00;;
16667;SDS011;8447;52.630;4.734;2023-05-01T14:50:20;7.50;;;6.03;;
16667;SDS011;8447;52.630;4.734;2023-05-01T14:52:46;8.97;;;6.83;;
16667;SDS011;8447;52.630;4.734;2023-05-01T14:55:14;10.17;;;7.73;;
16667;SDS011;8447;52.630;4.734;2023-05-01T14:57:43;8.93;;;6.87;;
16667;SDS011;8447;52.630;4.734;2023-05-01T15:00:10;10.00;;;8.43;;
16667;SDS011;8447;52.630;4.734;2023-05-01T15:02:37;11.80;;;8.60;;
16667;SDS011;8447;52.630;4.734;2023-05-01T15:05:03;13.60;;;8.90;;
16667;SDS011;8447;52.630;4.734;2023-05-01T15:07:30;10.60;;;7.50;;
16667;SDS011;8447;52.630;4.734;2023-05-01T15:09:56;10.63;;;8.03;;